Time;durP1;ratioP1;P1;durP2;ratioP2;P2;SDS_P1;SDS_P2;PMS_P1;PMS_P2;Temp;Humidity;BMP_temperature;BMP_pressure;BME280_temperature;BME280_humidity;BME280_pressure;Samples;Min_cycle;Max_cycle;Signal;HPM_P1;HPM_P2
2021/10/14 00:02:24;;;;;;;25.00;15.63;;;6.50;99.90;;;;;;5017738;28;20212;-90
2021/10/14 00:04:50;;;;;;;35.40;16.90;;;6.50;99.90;;;;;;4983457;28;20185;-86
2021/10/14 00:07:15;;;;;;;33.07;17.07;;;6.60;99.90;;;;;;4983394;28;20216;-87
2021/10/14 00:09:41;;;;;;;32.57;17.07;;;6.60;99.90;;;;;;5015776;28;20243;-87
2021/10/14 00:12:07;;;;;;;28.03;15.80;;;6.60;99.90;;;;;;4999584;28;20542;-87
2021/10/14 00:14:33;;;;;;;36.23;18.57;;;6.60;99.90;;;;;;4983443;28;20185;-87
2021/10/14 00:16:58;;;;;;;29.67;15.80;;;6.60;99.90;;;;;;4983770;28;20185;-87
2021/10/14 00:19:24;;;;;;;30.20;16.20;;;6.60;99.90;;;;;;4999550;28;20731;-87
2021/10/14 00:21:50;;;;;;;30.50;16.07;;;6.90;99.90;;;;;;4999181;28;20675;-87
2021/10/14 00:24:16;;;;;;;29.97;17.00;;;;;;;;;;4999295;28;20644;-87
2021/10/14 00:26:42;;;;;;;37.53;16.83;;;;;;;;;;5015537;28;20231;-88
2021/10/14 00:29:07;;;;;;;28.90;17.57;;;6.60;99.90;;;;;;5016894;28;20212;-86
2021/10/14 00:31:33;;;;;;;30.87;16.70;;;6.60;99.90;;;;;;4970920;28;20279;-87
2021/10/14 00:33:59;;;;;;;30.70;17.53;;;6.70;99.90;;;;;;4999660;28;20602;-87
2021/10/14 00:36:24;;;;;;;29.83;17.10;;;6.60;99.90;;;;;;4983093;28;20544;-87
2021/10/14 00:38:50;;;;;;;34.30;18.97;;;6.50;99.90;;;;;;4999234;28;20192;-87
2021/10/14 00:41:16;;;;;;;29.20;16.53;;;6.60;99.90;;;;;;4982563;28;20574;-87
2021/10/14 00:43:42;;;;;;;36.80;19.33;;;6.80;99.90;;;;;;4998706;28;20189;-87
2021/10/14 00:46:18;;;;;;;35.80;19.63;;;6.60;99.90;;;;;;5015729;28;20189;-87
2021/10/14 00:48:43;;;;;;;36.70;18.20;;;6.60;99.90;;;;;;4982703;28;20662;-87
2021/10/14 00:51:10;;;;;;;29.90;18.77;;;6.60;99.90;;;;;;5016462;28;20185;-87
2021/10/14 00:53:46;;;;;;;30.37;18.70;;;6.60;99.90;;;;;;5017549;28;20210;-87
2021/10/14 00:56:15;;;;;;;36.43;19.53;;;6.50;99.90;;;;;;5001953;28;20173;-87
2021/10/14 00:58:41;;;;;;;32.50;19.33;;;;;;;;;;5001319;28;20208;-87
2021/10/14 01:01:06;;;;;;;33.77;17.70;;;6.50;99.90;;;;;;5018249;28;20258;-87
2021/10/14 01:03:33;;;;;;;36.30;19.10;;;6.50;99.90;;;;;;5001109;28;20185;-88
2021/10/14 01:06:00;;;;;;;33.80;19.80;;;6.60;99.90;;;;;;5018012;28;20188;-88
2021/10/14 01:08:26;;;;;;;35.30;19.73;;;6.50;99.90;;;;;;5001762;28;20316;-88
2021/10/14 01:10:52;;;;;;;32.00;18.20;;;6.50;99.90;;;;;;5002694;28;20259;-87
2021/10/14 01:13:19;;;;;;;38.50;19.93;;;6.50;99.90;;;;;;4983108;28;20189;-88
2021/10/14 01:15:45;;;;;;;30.83;18.73;;;;;;;;;;5016012;28;20209;-87
2021/10/14 01:18:12;;;;;;;31.97;17.93;;;6.50;99.90;;;;;;5016298;28;20178;-89
2021/10/14 01:20:40;;;;;;;29.10;17.27;;;;;;;;;;4997973;28;20245;-88
2021/10/14 01:23:07;;;;;;;29.57;18.03;;;6.40;99.90;;;;;;4998741;28;20185;-87
2021/10/14 01:25:33;;;;;;;31.40;17.27;;;6.40;99.90;;;;;;4966203;28;20275;-88
2021/10/14 01:27:59;;;;;;;32.50;17.93;;;6.30;99.90;;;;;;5016017;28;20272;-88
2021/10/14 01:30:25;;;;;;;29.20;17.23;;;6.30;99.90;;;;;;4998319;28;20181;-88
2021/10/14 01:32:51;;;;;;;35.77;18.10;;;6.30;99.90;;;;;;5013971;28;20186;-87
2021/10/14 01:35:18;;;;;;;31.00;17.30;;;6.30;99.90;;;;;;4998812;28;20268;-86
2021/10/14 01:37:45;;;;;;;30.00;17.93;;;6.20;99.90;;;;;;4997705;28;20296;-86
2021/10/14 01:40:11;;;;;;;34.73;17.50;;;6.20;99.90;;;;;;4998255;28;20217;-86
2021/10/14 01:42:37;;;;;;;30.83;17.83;;;6.20;99.90;;;;;;4982164;28;20667;-87
2021/10/14 01:45:04;;;;;;;34.37;17.50;;;6.10;99.90;;;;;;4998118;28;20199;-86
2021/10/14 01:47:31;;;;;;;30.33;17.70;;;6.10;99.90;;;;;;5015925;28;20272;-87
2021/10/14 01:49:57;;;;;;;30.70;18.67;;;6.10;99.90;;;;;;5014129;28;20220;-87
2021/10/14 01:52:23;;;;;;;29.83;17.67;;;6.00;99.90;;;;;;5015331;28;20627;-87
2021/10/14 01:54:50;;;;;;;33.07;18.13;;;6.00;99.90;;;;;;4997674;28;20188;-87
2021/10/14 01:57:16;;;;;;;33.47;18.37;;;6.00;99.90;;;;;;5015802;28;20631;-87
2021/10/14 01:59:44;;;;;;;30.80;18.60;;;5.90;99.90;;;;;;4981602;28;20196;-86
2021/10/14 02:02:10;;;;;;;37.70;21.10;;;;;;;;;;4981468;28;20204;-87
2021/10/14 02:04:35;;;;;;;31.80;19.33;;;5.90;99.90;;;;;;4997693;28;20191;-87
2021/10/14 02:07:01;;;;;;;33.00;18.63;;;5.80;99.90;;;;;;4981589;28;20185;-87
2021/10/14 02:09:27;;;;;;;33.57;18.43;;;5.80;99.90;;;;;;4981633;28;20519;-87
2021/10/14 02:11:52;;;;;;;30.70;17.70;;;5.70;99.90;;;;;;5015155;28;20223;-86
2021/10/14 02:14:18;;;;;;;29.77;18.43;;;5.70;99.90;;;;;;4965646;28;20723;-87
2021/10/14 02:16:44;;;;;;;32.53;19.47;;;5.60;99.90;;;;;;4981745;28;20185;-86
2021/10/14 02:19:09;;;;;;;37.27;20.30;;;5.70;99.90;;;;;;4966205;28;20262;-86
2021/10/14 02:21:35;;;;;;;36.27;20.10;;;5.60;99.90;;;;;;5021419;28;20239;-86
2021/10/14 02:24:01;;;;;;;38.40;20.43;;;5.50;99.90;;;;;;5005413;28;20193;-87
2021/10/14 02:26:26;;;;;;;38.53;21.40;;;5.50;99.90;;;;;;5010572;28;20185;-86
2021/10/14 02:28:52;;;;;;;41.40;22.73;;;5.50;99.90;;;;;;5021519;28;20186;-85
2021/10/14 02:31:18;;;;;;;37.40;21.67;;;5.40;99.90;;;;;;5026510;28;20177;-88
2021/10/14 02:33:43;;;;;;;48.03;24.10;;;5.40;99.90;;;;;;4993137;28;20185;-87
2021/10/14 02:36:09;;;;;;;43.97;23.00;;;5.40;99.90;;;;;;4979162;28;20189;-85
2021/10/14 02:38:35;;;;;;;45.77;23.80;;;5.50;99.90;;;;;;5009751;28;20177;-86
2021/10/14 02:41:02;;;;;;;47.03;23.73;;;5.20;99.90;;;;;;4995469;28;20213;-86
2021/10/14 02:43:28;;;;;;;46.63;24.03;;;5.20;99.90;;;;;;5028218;28;20252;-85
2021/10/14 02:45:54;;;;;;;50.17;23.73;;;;;;;;;;5009485;28;20177;-85
2021/10/14 02:48:20;;;;;;;49.73;23.67;;;;;;;;;;5017327;28;20173;-85
2021/10/14 02:50:46;;;;;;;52.27;24.87;;;5.20;99.90;;;;;;5013003;28;20242;-86
2021/10/14 02:53:12;;;;;;;50.43;25.43;;;5.20;99.90;;;;;;4980638;28;20275;-86
2021/10/14 02:55:38;;;;;;;55.17;26.27;;;5.20;99.90;;;;;;4997124;28;20276;-86
2021/10/14 02:58:03;;;;;;;53.30;24.57;;;5.20;99.90;;;;;;4997951;28;20220;-86
2021/10/14 03:00:29;;;;;;;52.67;26.40;;;5.20;99.90;;;;;;4998294;28;20213;-86
2021/10/14 03:02:55;;;;;;;51.17;25.77;;;5.50;99.90;;;;;;4981617;28;20216;-85
2021/10/14 03:05:20;;;;;;;49.97;24.90;;;5.20;99.90;;;;;;4997471;28;20177;-85
2021/10/14 03:07:46;;;;;;;56.67;26.07;;;5.10;99.90;;;;;;4996646;28;20192;-86
2021/10/14 03:10:12;;;;;;;59.17;27.00;;;5.10;99.90;;;;;;5014325;28;20659;-86
2021/10/14 03:12:38;;;;;;;51.23;25.97;;;5.10;99.90;;;;;;4996319;28;20221;-86
2021/10/14 03:15:05;;;;;;;55.83;26.17;;;5.10;99.90;;;;;;5012853;28;20177;-86
2021/10/14 03:17:31;;;;;;;58.80;27.37;;;5.00;99.90;;;;;;5014928;28;20248;-86
2021/10/14 03:19:57;;;;;;;63.57;26.93;;;6.60;99.90;;;;;;4981677;28;20259;-87
2021/10/14 03:22:22;;;;;;;61.43;28.60;;;5.00;99.90;;;;;;4981015;28;20192;-85
2021/10/14 03:24:48;;;;;;;59.87;27.77;;;5.00;99.90;;;;;;5013432;28;20193;-85
2021/10/14 03:27:13;;;;;;;59.57;25.93;;;5.00;99.90;;;;;;4980681;28;20185;-86
2021/10/14 03:29:39;;;;;;;64.53;28.23;;;5.00;99.90;;;;;;4996449;28;20220;-85
2021/10/14 03:32:05;;;;;;;58.63;27.23;;;5.00;99.90;;;;;;5013821;28;20192;-85
2021/10/14 03:34:31;;;;;;;61.03;28.90;;;5.00;99.90;;;;;;5014718;28;20240;-85
2021/10/14 03:36:56;;;;;;;70.83;30.07;;;5.10;99.90;;;;;;4964204;28;20628;-86
2021/10/14 03:39:22;;;;;;;65.87;27.97;;;;;;;;;;5014015;28;20181;-85
2021/10/14 03:41:48;;;;;;;58.47;27.43;;;5.00;99.90;;;;;;5012148;28;20204;-87
2021/10/14 03:44:17;;;;;;;73.33;28.10;;;5.00;99.90;;;;;;4997290;28;20196;-86
2021/10/14 03:46:43;;;;;;;61.57;27.33;;;5.00;99.90;;;;;;5006359;28;20231;-86
2021/10/14 03:49:08;;;;;;;60.47;27.73;;;5.60;99.90;;;;;;5008189;28;20189;-86
2021/10/14 03:51:34;;;;;;;56.70;24.67;;;5.00;99.90;;;;;;4992884;28;20319;-86
2021/10/14 03:53:59;;;;;;;59.53;25.37;;;5.00;99.90;;;;;;5007112;28;20185;-86
2021/10/14 03:56:25;;;;;;;48.73;24.07;;;4.80;99.90;;;;;;5019912;28;20181;-85
2021/10/14 03:58:51;;;;;;;55.53;24.60;;;5.50;99.90;;;;;;5004636;28;20176;-92
2021/10/14 04:01:17;;;;;;;51.07;24.53;;;5.00;99.90;;;;;;5020873;28;20204;-87
2021/10/14 04:03:43;;;;;;;52.70;25.03;;;4.90;99.90;;;;;;5003371;28;20194;-90
2021/10/14 04:06:08;;;;;;;62.03;26.67;;;5.40;99.90;;;;;;5001673;28;20217;-86
2021/10/14 04:08:34;;;;;;;65.57;26.97;;;;;;;;;;4990508;28;20701;-86
2021/10/14 04:11:00;;;;;;;71.17;26.43;;;4.90;99.90;;;;;;5025692;28;20173;-88
2021/10/14 04:13:26;;;;;;;55.23;25.77;;;4.90;99.90;;;;;;5011213;28;20340;-89
2021/10/14 04:15:51;;;;;;;65.13;26.97;;;4.80;99.90;;;;;;5016800;28;20193;-89
2021/10/14 04:18:17;;;;;;;75.50;27.27;;;4.70;99.90;;;;;;5039027;28;20188;-86
2021/10/14 04:20:43;;;;;;;77.93;28.10;;;4.60;99.90;;;;;;4991803;28;20702;-84
2021/10/14 04:23:09;;;;;;;81.87;31.53;;;4.70;99.90;;;;;;4993686;28;20232;-84
2021/10/14 04:25:34;;;;;;;63.10;27.70;;;4.70;99.90;;;;;;5017907;28;20173;-85
2021/10/14 04:28:01;;;;;;;91.80;38.73;;;4.50;99.90;;;;;;5001099;28;20196;-86
2021/10/14 04:30:27;;;;;;;63.27;28.23;;;4.60;99.90;;;;;;4988371;28;20208;-86
2021/10/14 04:32:53;;;;;;;69.70;27.27;;;4.50;99.90;;;;;;4998675;28;20196;-87
2021/10/14 04:35:19;;;;;;;69.20;28.27;;;4.50;99.90;;;;;;4993982;28;20200;-86
2021/10/14 04:37:45;;;;;;;70.43;27.20;;;4.50;99.90;;;;;;5030989;28;20275;-86
2021/10/14 04:40:11;;;;;;;63.73;26.73;;;4.90;99.90;;;;;;5001093;28;20307;-85
2021/10/14 04:42:37;;;;;;;91.33;41.30;;;4.50;99.90;;;;;;4983778;28;20213;-85
2021/10/14 04:45:04;;;;;;;52.87;25.47;;;4.40;99.90;;;;;;5016160;28;20729;-85
2021/10/14 04:47:29;;;;;;;65.60;26.93;;;4.40;99.90;;;;;;5028719;28;20195;-85
2021/10/14 04:49:55;;;;;;;59.07;28.87;;;5.50;99.90;;;;;;5006520;28;20558;-88
2021/10/14 04:52:21;;;;;;;64.43;25.17;;;;;;;;;;5010025;28;20611;-87
2021/10/14 04:54:47;;;;;;;65.37;25.97;;;4.30;99.90;;;;;;5007158;28;20195;-83
2021/10/14 04:57:12;;;;;;;52.20;24.23;;;4.30;99.90;;;;;;4997140;28;20268;-88
2021/10/14 04:59:38;;;;;;;61.57;25.47;;;4.20;99.90;;;;;;5024413;28;20243;-87
2021/10/14 05:02:04;;;;;;;55.93;24.60;;;4.90;99.90;;;;;;4965800;28;20679;-87
2021/10/14 05:04:30;;;;;;;57.77;23.83;;;4.40;99.90;;;;;;4975422;28;20726;-86
2021/10/14 05:06:55;;;;;;;47.13;22.57;;;4.20;99.90;;;;;;5017508;28;20193;-88
2021/10/14 05:09:22;;;;;;;51.00;23.40;;;4.80;99.90;;;;;;5000780;28;20207;-86
2021/10/14 05:11:48;;;;;;;66.23;23.67;;;;;;;;;;5000834;28;20185;-87
2021/10/14 05:14:14;;;;;;;70.93;24.97;;;;;;;;;;5006196;28;20184;-87
2021/10/14 05:16:40;;;;;;;58.67;23.20;;;;;;;;;;5016414;28;20184;-86
2021/10/14 05:19:06;;;;;;;58.07;23.87;;;4.20;99.90;;;;;;4998198;28;20717;-87
2021/10/14 05:21:32;;;;;;;53.27;22.67;;;4.20;99.90;;;;;;4981937;28;20208;-86
2021/10/14 05:24:01;;;;;;;65.47;24.93;;;4.20;99.90;;;;;;4981875;28;20173;-88
2021/10/14 05:26:28;;;;;;;81.20;31.57;;;4.10;99.90;;;;;;4981881;28;20181;-85
2021/10/14 05:28:55;;;;;;;55.30;23.10;;;4.10;99.90;;;;;;4981886;28;20185;-85
2021/10/14 05:31:20;;;;;;;52.73;24.33;;;4.10;99.90;;;;;;5013943;28;20354;-87
2021/10/14 05:33:46;;;;;;;65.77;25.90;;;4.90;99.90;;;;;;5005702;28;20696;-87
2021/10/14 05:36:12;;;;;;;63.47;24.63;;;5.20;99.90;;;;;;5015722;28;20266;-86
2021/10/14 05:38:37;;;;;;;59.37;24.10;;;4.20;99.90;;;;;;5016844;28;20187;-85
2021/10/14 05:41:03;;;;;;;65.13;23.77;;;4.20;99.90;;;;;;5016318;28;20245;-85
2021/10/14 05:43:29;;;;;;;60.27;23.33;;;4.20;99.90;;;;;;4993927;28;20185;-88
2021/10/14 05:45:55;;;;;;;51.17;22.93;;;4.20;99.90;;;;;;4990909;28;20245;-87
2021/10/14 05:48:21;;;;;;;54.53;21.90;;;4.50;99.90;;;;;;5007263;28;20650;-86
2021/10/14 05:50:46;;;;;;;56.33;23.43;;;5.20;99.90;;;;;;4980436;28;20550;-87
2021/10/14 05:53:12;;;;;;;65.63;22.87;;;4.10;99.90;;;;;;4995578;28;20198;-86
2021/10/14 05:55:38;;;;;;;66.13;24.17;;;4.20;99.90;;;;;;4994786;28;20291;-86
2021/10/14 05:58:04;;;;;;;66.63;25.33;;;3.90;99.90;;;;;;4991935;28;20223;-86
2021/10/14 06:00:30;;;;;;;81.43;26.70;;;4.20;99.90;;;;;;4973000;28;20207;-85
2021/10/14 06:02:55;;;;;;;62.97;23.00;;;4.20;99.90;;;;;;5014002;28;20208;-85
2021/10/14 06:05:21;;;;;;;68.43;25.97;;;4.60;99.90;;;;;;4995196;28;20184;-87
2021/10/14 06:07:48;;;;;;;71.13;24.67;;;4.20;99.90;;;;;;5015097;28;20186;-88
2021/10/14 06:10:14;;;;;;;63.07;22.30;;;4.60;99.90;;;;;;4971120;28;20205;-86
2021/10/14 06:12:40;;;;;;;56.33;23.83;;;4.40;99.90;;;;;;4999615;28;20266;-88
2021/10/14 06:15:07;;;;;;;68.57;24.00;;;4.20;99.90;;;;;;5017604;28;20765;-87
2021/10/14 06:17:33;;;;;;;67.77;23.77;;;4.10;99.90;;;;;;5033463;28;20184;-85
2021/10/14 06:19:59;;;;;;;57.73;24.20;;;4.10;99.90;;;;;;5016447;28;20240;-86
2021/10/14 06:22:24;;;;;;;64.00;23.20;;;4.20;99.90;;;;;;5017216;28;20220;-87
2021/10/14 06:24:52;;;;;;;66.40;25.07;;;4.30;99.90;;;;;;5016823;28;20189;-86
2021/10/14 06:27:18;;;;;;;58.00;23.60;;;4.30;99.90;;;;;;5003341;28;20183;-87
2021/10/14 06:29:47;;;;;;;61.83;25.03;;;4.40;99.90;;;;;;5024756;28;20192;-87
2021/10/14 06:32:13;;;;;;;63.17;22.63;;;4.40;99.90;;;;;;5036774;28;20211;-84
2021/10/14 06:34:39;;;;;;;61.17;23.67;;;4.40;99.90;;;;;;5035136;28;20650;-86
2021/10/14 06:37:04;;;;;;;54.63;23.23;;;4.50;99.90;;;;;;5017312;28;20195;-88
2021/10/14 06:39:30;;;;;;;54.67;19.40;;;5.20;99.90;;;;;;5000502;28;20183;-85
2021/10/14 06:41:56;;;;;;;54.93;20.83;;;;;;;;;;5000408;28;20214;-85
2021/10/14 06:44:22;;;;;;;59.33;21.70;;;;;;;;;;5016782;28;20200;-89
2021/10/14 06:46:56;;;;;;;54.20;21.47;;;;;;;;;;5034966;28;20188;-89
2021/10/14 06:49:22;;;;;;;55.03;22.63;;;;;;;;;;5016505;28;20656;-88
2021/10/14 06:51:48;;;;;;;62.00;23.03;;;;;;;;;;5034008;28;20258;-89
2021/10/14 06:54:14;;;;;;;58.80;23.37;;;;;;;;;;5019549;28;20183;-90
2021/10/14 06:56:43;;;;;;;64.67;25.17;;;4.70;99.90;;;;;;5018900;28;20562;-91
2021/10/14 06:59:09;;;;;;;57.13;23.87;;;;;;;;;;5036635;28;20259;-91
2021/10/14 07:01:35;;;;;;;60.50;21.80;;;;;;;;;;5019720;28;20200;-90
2021/10/14 07:04:02;;;;;;;58.70;24.73;;;;;;;;;;5020064;28;20320;-90
2021/10/14 07:06:33;;;;;;;48.77;20.37;;;4.50;99.90;;;;;;5019587;28;20179;-89
2021/10/14 07:09:11;;;;;;;;;;;;;;;;;;;;;
2021/10/14 07:11:43;;;;;;;50.13;20.57;;;;;;;;;;5020425;28;20183;-91
2021/10/14 07:14:09;;;;;;;47.07;20.90;;;;;;;;;;5031100;28;20188;-90
2021/10/14 07:16:39;;;;;;;48.70;19.77;;;4.50;99.90;;;;;;5000056;28;20662;-90
2021/10/14 07:19:07;;;;;;;48.27;22.67;;;4.50;99.90;;;;;;5016766;28;20238;-91
2021/10/14 07:21:33;;;;;;;57.67;23.87;;;;;;;;;;5032403;28;20219;-90
2021/10/14 07:23:59;;;;;;;53.93;22.13;;;;;;;;;;5015030;28;20254;-92
2021/10/14 07:26:25;;;;;;;55.10;21.47;;;;;;;;;;5016061;28;20180;-91
2021/10/14 07:28:56;;;;;;;51.57;22.93;;;4.70;99.90;;;;;;5016446;28;20210;-90
2021/10/14 07:31:23;;;;;;;52.20;21.93;;;;;;;;;;5032858;28;20649;-90
2021/10/14 07:33:51;;;;;;;46.83;20.73;;;;;;;;;;5016124;28;20267;-91
2021/10/14 07:36:17;;;;;;;47.73;20.53;;;;;;;;;;5015857;28;20637;-90
2021/10/14 07:38:45;;;;;;;52.13;19.70;;;;;;;;;;5016162;28;20250;-90
2021/10/14 07:41:11;;;;;;;57.90;21.07;;;;;;;;;;5016661;28;20222;-90
2021/10/14 07:43:40;;;;;;;53.83;22.50;;;4.90;99.90;;;;;;5015765;28;20278;-92
2021/10/14 07:46:08;;;;;;;74.20;24.57;;;;;;;;;;5031530;28;20194;-89
2021/10/14 07:48:39;;;;;;;52.60;20.77;;;4.90;99.90;;;;;;5007277;28;20195;-88
2021/10/14 07:51:05;;;;;;;54.33;22.17;;;;;;;;;;5003854;28;20185;-89
2021/10/14 07:53:31;;;;;;;65.10;23.30;;;;;;;;;;5006843;28;20172;-89
2021/10/14 07:56:00;;;;;;;64.73;22.87;;;5.10;99.90;;;;;;5008677;28;20658;-92
2021/10/14 07:58:37;;;;;;;55.07;22.03;;;5.10;99.90;;;;;;5012431;28;20185;-93
2021/10/14 08:01:04;;;;;;;58.27;22.17;;;;;;;;;;4999230;28;20231;-91
2021/10/14 08:03:32;;;;;;;57.87;22.67;;;;;;;;;;5004081;28;20684;-93
2021/10/14 08:06:01;;;;;;;61.33;21.70;;;5.20;99.90;;;;;;5006969;28;20185;-91
2021/10/14 08:08:29;;;;;;;55.50;20.63;;;;;;;;;;5002160;28;20177;-88
2021/10/14 08:10:58;;;;;;;53.03;21.03;;;;;;;;;;5022374;28;20238;-86
2021/10/14 08:13:25;;;;;;;53.73;21.00;;;5.20;99.90;;;;;;5024975;28;20169;-87
2021/10/14 08:15:54;;;;;;;55.17;22.17;;;;;;;;;;5015294;28;20291;-85
2021/10/14 08:18:22;;;;;;;53.87;21.43;;;5.50;99.90;;;;;;5008932;28;20177;-87
2021/10/14 08:20:53;;;;;;;51.37;20.80;;;5.40;99.90;;;;;;5003889;28;20232;-90
2021/10/14 08:23:19;;;;;;;56.77;20.70;;;;;;;;;;5000983;28;20260;-86
2021/10/14 08:25:45;;;;;;;54.40;21.57;;;;;;;;;;5022540;28;20204;-86
2021/10/14 08:28:12;;;;;;;47.60;19.93;;;;;;;;;;5010975;28;20173;-86
2021/10/14 08:30:38;;;;;;;56.37;21.47;;;;;;;;;;5009930;28;20187;-86
2021/10/14 08:33:04;;;;;;;55.50;23.37;;;;;;;;;;5010506;28;20264;-88
2021/10/14 08:35:35;;;;;;;52.03;21.57;;;;;;;;;;5005556;28;20185;-87
2021/10/14 08:38:05;;;;;;;52.77;23.00;;;5.60;99.90;;;;;;5016274;28;20234;-86
2021/10/14 08:40:31;;;;;;;49.27;21.17;;;;;;;;;;5020687;28;20675;-85
2021/10/14 08:43:04;;;;;;;50.97;22.57;;;5.70;99.90;;;;;;5026514;28;20226;-86
2021/10/14 08:45:36;;;;;;;60.13;22.33;;;5.70;99.90;;;;;;5027695;28;20215;-86
2021/10/14 08:48:02;;;;;;;52.73;22.33;;;5.70;99.90;;;;;;5014085;28;20189;-86
2021/10/14 08:50:28;;;;;;;52.03;23.23;;;5.70;99.90;;;;;;5003919;28;20200;-86
2021/10/14 08:52:54;;;;;;;49.77;21.70;;;5.60;99.90;;;;;;5006859;28;20635;-84
2021/10/14 08:55:20;;;;;;;55.93;22.97;;;5.70;99.90;;;;;;5024332;28;20196;-85
2021/10/14 08:57:45;;;;;;;51.87;22.73;;;5.80;99.90;;;;;;5006515;28;20182;-84
2021/10/14 09:00:12;;;;;;;57.13;24.90;;;5.90;99.90;;;;;;5011863;28;20177;-82
2021/10/14 09:02:37;;;;;;;53.50;22.93;;;5.90;99.90;;;;;;5009350;28;20199;-85
2021/10/14 09:05:08;;;;;;;55.67;22.50;;;6.20;99.90;;;;;;5006033;28;20184;-85
2021/10/14 09:07:34;;;;;;;56.40;22.63;;;5.90;99.90;;;;;;5019872;28;20182;-85
2021/10/14 09:10:05;;;;;;;60.43;24.90;;;6.00;99.90;;;;;;5010387;28;20284;-89
2021/10/14 09:12:33;;;;;;;54.87;24.83;;;6.10;99.90;;;;;;5027809;28;20191;-86
2021/10/14 09:15:06;;;;;;;61.43;25.60;;;6.10;99.90;;;;;;5024667;28;20184;-86
2021/10/14 09:17:37;;;;;;;56.10;24.80;;;6.10;99.90;;;;;;5014540;28;20232;-86
2021/10/14 09:20:31;;;;;;;50.00;21.57;;;6.00;99.90;;;;;;5015062;28;20710;-85
2021/10/14 09:23:21;;;;;;;49.27;23.47;;;6.10;99.90;;;;;;4997899;28;20177;-86
2021/10/14 09:25:50;;;;;;;43.57;21.47;;;6.20;99.90;;;;;;4998674;28;20192;-85
2021/10/14 09:28:22;;;;;;;51.20;22.93;;;6.20;99.90;;;;;;4998098;28;20192;-85
2021/10/14 09:30:58;;;;;;;51.60;21.23;;;6.20;99.90;;;;;;5017489;28;20185;-84
2021/10/14 09:33:37;;;;;;;50.30;23.03;;;6.20;99.90;;;;;;5020380;28;20208;-86
2021/10/14 09:36:21;;;;;;;46.53;20.33;;;6.20;99.90;;;;;;5001838;28;20184;-86
2021/10/14 09:38:50;;;;;;;41.43;20.53;;;6.30;99.90;;;;;;5034259;28;20181;-86
2021/10/14 09:41:19;;;;;;;45.20;20.83;;;6.30;99.90;;;;;;5025329;28;20197;-85
2021/10/14 09:43:48;;;;;;;45.23;21.80;;;6.60;99.90;;;;;;5001320;28;20189;-86
2021/10/14 09:46:32;;;;;;;44.73;19.27;;;6.60;99.90;;;;;;4997927;28;20181;-85
2021/10/14 09:48:59;;;;;;;46.17;20.73;;;6.70;99.90;;;;;;5001264;28;20701;-87
2021/10/14 09:51:25;;;;;;;42.23;20.70;;;6.80;99.90;;;;;;4981690;28;20192;-85
2021/10/14 09:53:51;;;;;;;37.47;18.53;;;7.00;99.90;;;;;;4998436;28;20181;-87
2021/10/14 09:56:16;;;;;;;34.73;18.40;;;7.20;99.90;;;;;;4998377;28;20182;-87
2021/10/14 09:58:42;;;;;;;36.40;17.53;;;7.40;99.90;;;;;;5015192;28;20181;-86
2021/10/14 10:01:08;;;;;;;30.57;15.37;;;7.40;99.90;;;;;;4987861;28;20211;-87
2021/10/14 10:03:34;;;;;;;29.10;15.70;;;7.40;99.90;;;;;;5012336;28;20231;-90
2021/10/14 10:06:04;;;;;;;35.77;16.30;;;7.40;99.90;;;;;;5004264;28;20189;-89
2021/10/14 10:08:42;;;;;;;32.50;15.53;;;7.50;99.90;;;;;;5033725;28;20196;-90
2021/10/14 10:11:17;;;;;;;27.33;14.73;;;7.50;99.90;;;;;;5035308;28;20187;-90
2021/10/14 10:13:46;;;;;;;32.43;14.77;;;7.60;99.90;;;;;;5033733;28;20180;-88
2021/10/14 10:16:17;;;;;;;24.77;13.90;;;7.60;99.90;;;;;;5048210;28;20171;-89
2021/10/14 10:18:45;;;;;;;24.77;14.20;;;7.70;99.90;;;;;;5057998;28;20176;-89
2021/10/14 10:21:38;;;;;;;28.13;13.53;;;7.70;99.90;;;;;;5042542;28;20199;-88
2021/10/14 10:24:07;;;;;;;24.27;13.33;;;7.80;99.90;;;;;;5056090;28;20177;-88
2021/10/14 10:26:35;;;;;;;23.50;13.80;;;8.10;99.90;;;;;;5058426;28;20164;-90
2021/10/14 10:29:13;;;;;;;23.33;13.83;;;8.00;99.90;;;;;;5041676;28;20208;-88
2021/10/14 10:31:55;;;;;;;28.93;16.10;;;8.00;99.90;;;;;;5041567;28;20203;-91
2021/10/14 10:37:25;;;;;;;23.33;13.90;;;8.20;99.90;;;;;;5038980;28;20181;-88
2021/10/14 10:39:56;;;;;;;22.00;12.37;;;8.40;99.90;;;;;;5038023;28;20226;-90
2021/10/14 10:42:42;;;;;;;22.37;13.13;;;8.50;99.90;;;;;;5020060;28;20289;-91
2021/10/14 10:45:08;;;;;;;24.67;13.93;;;;;;;;;;5021371;28;20184;-88
2021/10/14 10:47:41;;;;;;;32.90;12.90;;;8.90;99.90;;;;;;5037899;28;20169;-91
2021/10/14 10:50:21;;;;;;;18.40;11.07;;;8.80;99.90;;;;;;5019373;28;20166;-89
2021/10/14 10:53:03;;;;;;;17.80;10.80;;;9.10;99.90;;;;;;5009538;28;20230;-89
2021/10/14 10:55:29;;;;;;;18.47;11.10;;;;;;;;;;5009469;28;20183;-90
2021/10/14 10:57:55;;;;;;;16.77;11.10;;;9.10;99.90;;;;;;5012870;28;20289;-89
2021/10/14 11:00:23;;;;;;;15.07;9.47;;;9.00;99.90;;;;;;5010499;28;20188;-91
2021/10/14 11:03:23;;;;;;;19.10;10.57;;;8.90;99.90;;;;;;4983905;28;20679;-90
2021/10/14 11:05:59;;;;;;;16.90;10.80;;;8.90;99.90;;;;;;5014607;28;20176;-91
2021/10/14 11:08:32;;;;;;;20.77;11.47;;;8.80;99.90;;;;;;5040910;28;20188;-88
2021/10/14 11:11:12;;;;;;;17.73;10.50;;;8.90;99.90;;;;;;5016695;28;20260;-88
2021/10/14 11:13:47;;;;;;;17.23;10.80;;;9.00;99.90;;;;;;4998226;28;20537;-88
2021/10/14 11:16:16;;;;;;;18.93;11.30;;;9.10;99.90;;;;;;5006860;28;20663;-88
2021/10/14 11:18:44;;;;;;;18.77;10.67;;;9.10;99.90;;;;;;4997247;28;20534;-89
2021/10/14 11:21:12;;;;;;;19.13;11.33;;;9.20;99.90;;;;;;5015670;28;20201;-89
2021/10/14 11:23:44;;;;;;;14.67;10.83;;;9.30;99.90;;;;;;5019370;28;20180;-90
2021/10/14 11:26:19;;;;;;;15.90;10.60;;;9.30;99.90;;;;;;5024718;28;20181;-90
2021/10/14 11:28:55;;;;;;;13.50;9.13;;;9.50;99.90;;;;;;5019860;28;20247;-93
2021/10/14 11:31:26;;;;;;;13.27;8.27;;;9.50;99.90;;;;;;5019049;28;20625;-91
2021/10/14 11:33:52;;;;;;;16.33;9.73;;;9.50;99.90;;;;;;5035037;28;20208;-90
2021/10/14 11:36:22;;;;;;;18.23;10.57;;;9.30;99.90;;;;;;5018738;28;20184;-92
2021/10/14 11:39:06;;;;;;;19.60;11.30;;;9.20;99.90;;;;;;5032276;28;20176;-90
2021/10/14 11:41:32;;;;;;;17.67;10.00;;;9.30;99.90;;;;;;5034588;28;20204;-88
2021/10/14 11:44:02;;;;;;;16.40;10.07;;;9.40;99.90;;;;;;5017333;28;20623;-89
2021/10/14 11:46:32;;;;;;;20.17;10.70;;;9.60;99.90;;;;;;5033659;28;20223;-90
2021/10/14 11:49:00;;;;;;;16.40;9.50;;;9.80;99.90;;;;;;5024477;28;20184;-90
2021/10/14 11:51:27;;;;;;;17.23;8.80;;;9.90;99.90;;;;;;5017150;28;20189;-89
2021/10/14 11:54:00;;;;;;;17.13;8.63;;;9.90;99.90;;;;;;4997449;28;20185;-89
2021/10/14 11:56:27;;;;;;;19.77;9.80;;;9.80;99.90;;;;;;5014116;28;20169;-88
2021/10/14 11:58:53;;;;;;;16.97;9.33;;;9.80;99.90;;;;;;5000288;28;20658;-89
2021/10/14 12:01:23;;;;;;;18.23;10.83;;;9.60;99.90;;;;;;5005542;28;20205;-88
2021/10/14 12:03:50;;;;;;;15.87;9.13;;;9.60;99.90;;;;;;5023037;28;20188;-88
2021/10/14 12:06:20;;;;;;;16.23;8.27;;;9.70;99.90;;;;;;4982950;28;20181;-92
2021/10/14 12:08:46;;;;;;;13.13;7.30;;;9.60;99.90;;;;;;4988286;28;20192;-90
2021/10/14 12:11:20;;;;;;;15.30;8.57;;;9.60;99.90;;;;;;5014831;28;20201;-89
2021/10/14 12:14:04;;;;;;;16.63;8.13;;;9.70;99.90;;;;;;5014706;28;20216;-90
2021/10/14 12:16:31;;;;;;;11.60;7.70;;;9.80;99.90;;;;;;5012855;28;20258;-90
2021/10/14 12:19:17;;;;;;;14.10;7.73;;;9.70;99.90;;;;;;5012880;28;20216;-90
2021/10/14 12:21:47;;;;;;;12.77;7.53;;;9.90;99.90;;;;;;5032626;28;20670;-91
2021/10/14 12:24:18;;;;;;;10.13;7.17;;;11.40;99.90;;;;;;5032516;28;20242;-90
2021/10/14 12:26:45;;;;;;;15.67;8.03;;;9.80;99.90;;;;;;5033783;28;20187;-86
2021/10/14 12:29:21;;;;;;;13.97;8.20;;;9.70;99.90;;;;;;5036441;28;20203;-87
2021/10/14 12:31:47;;;;;;;15.97;8.23;;;10.00;99.90;;;;;;5016869;28;20280;-89
2021/10/14 12:34:14;;;;;;;13.57;8.23;;;10.20;99.90;;;;;;5034207;28;20176;-89
2021/10/14 12:37:14;;;;;;;15.93;7.60;;;10.40;99.90;;;;;;5036183;28;20196;-89
2021/10/14 12:39:43;;;;;;;11.83;6.97;;;;;;;;;;5034187;28;20180;-92
2021/10/14 12:42:11;;;;;;;12.63;7.50;;;10.50;99.90;;;;;;5015310;28;20663;-90
2021/10/14 12:45:01;;;;;;;19.03;8.50;;;11.00;99.90;;;;;;5018643;28;20187;-85
2021/10/14 12:47:48;;;;;;;14.47;8.27;;;10.80;99.90;;;;;;5007346;28;20177;-84
2021/10/14 12:50:41;;;;;;;16.93;7.93;;;11.00;99.90;;;;;;5008526;28;20222;-88
2021/10/14 12:53:16;;;;;;;12.90;7.17;;;11.20;99.90;;;;;;5028427;28;20552;-85
2021/10/14 12:56:02;;;;;;;14.37;6.97;;;10.80;99.90;;;;;;5007210;28;20181;-86
2021/10/14 12:58:28;;;;;;;18.27;8.23;;;11.00;99.90;;;;;;5026646;28;20183;-89
2021/10/14 13:01:00;;;;;;;15.02;8.45;;;11.70;99.90;;;;;;5028747;28;20247;-86
2021/10/14 13:03:26;;;;;;;12.73;7.93;;;12.60;99.90;;;;;;5008802;28;20173;-87